createdAt,value
2022-12-12T00:29:52.888Z,0.41
2022-12-12T00:32:20.703Z,0.40
2022-12-12T00:34:48.499Z,0.34
2022-12-12T00:37:16.672Z,0.42
2022-12-12T00:39:46.424Z,0.18
2022-12-12T00:42:14.734Z,0.45
2022-12-12T00:44:42.814Z,0.48
2022-12-12T00:47:12.076Z,0.38
2022-12-12T00:49:40.046Z,0.34
2022-12-12T00:52:07.960Z,0.57
2022-12-12T00:54:36.107Z,0.58
2022-12-12T00:57:04.161Z,0.61
2022-12-12T00:59:32.454Z,-0.09
2022-12-12T01:02:00.321Z,0.72
2022-12-12T01:04:29.632Z,0.72
2022-12-12T01:06:57.342Z,0.75
2022-12-12T01:09:25.092Z,0.82
2022-12-12T01:11:53.067Z,0.52
2022-12-12T01:14:20.805Z,0.38
2022-12-12T01:16:48.579Z,0.74
2022-12-12T01:19:16.372Z,0.68
2022-12-12T01:21:45.477Z,0.82
2022-12-12T01:24:13.179Z,0.19
2022-12-12T01:26:41.705Z,0.81
2022-12-12T01:29:09.415Z,0.80
2022-12-12T01:31:37.247Z,0.81
2022-12-12T01:34:05.101Z,0.63
2022-12-12T01:36:32.786Z,0.79
2022-12-12T01:39:02.822Z,0.79
2022-12-12T01:41:30.959Z,0.77
2022-12-12T01:44:01.775Z,0.75
2022-12-12T01:46:42.943Z,0.35
2022-12-12T01:49:16.675Z,0.74
2022-12-12T01:51:46.293Z,0.73
2022-12-12T01:54:19.951Z,0.72
2022-12-12T01:56:48.887Z,0.71
2022-12-12T01:59:20.066Z,0.70
2022-12-12T02:01:48.237Z,0.69
2022-12-12T02:04:16.420Z,0.68
2022-12-12T02:06:44.780Z,0.69
2022-12-12T02:09:17.039Z,0.70
2022-12-12T02:11:47.793Z,0.73
2022-12-12T02:14:17.962Z,0.65
2022-12-12T02:16:58.028Z,-0.21
2022-12-12T02:19:57.867Z,-0.86
2022-12-12T02:22:44.407Z,0.04
2022-12-12T02:25:38.711Z,0.75
2022-12-12T02:28:35.765Z,-0.20
2022-12-12T02:31:16.467Z,0.61
2022-12-12T02:33:54.295Z,0.58
2022-12-12T02:36:33.052Z,0.58
2022-12-12T02:39:07.983Z,0.59
2022-12-12T02:41:40.252Z,0.58
2022-12-12T02:44:17.821Z,0.58
2022-12-12T02:46:53.969Z,0.59
2022-12-12T02:49:26.486Z,0.47
2022-12-12T02:51:55.959Z,0.58
2022-12-12T02:54:24.937Z,0.42
2022-12-12T02:56:55.683Z,0.59
2022-12-12T02:59:27.889Z,0.57
2022-12-12T03:02:29.283Z,0.55
2022-12-12T03:05:29.871Z,0.54
2022-12-12T03:08:08.583Z,0.54
2022-12-12T03:10:50.205Z,0.26
2022-12-12T03:13:33.441Z,0.54
2022-12-12T03:16:14.482Z,0.30
2022-12-12T03:18:51.756Z,0.56
2022-12-12T03:21:26.722Z,0.61
2022-12-12T03:24:01.006Z,0.62
2022-12-12T03:26:33.406Z,0.64
2022-12-12T03:29:07.273Z,0.38
2022-12-12T03:31:43.130Z,0.63
2022-12-12T03:34:16.256Z,0.51
2022-12-12T03:36:54.119Z,0.61
2022-12-12T03:39:30.026Z,0.62
2022-12-12T03:42:03.704Z,0.07
2022-12-12T03:44:41.421Z,0.55
2022-12-12T03:47:14.210Z,0.17
2022-12-12T03:49:48.832Z,0.52
2022-12-12T03:52:25.291Z,0.53
2022-12-12T03:54:57.328Z,0.52
2022-12-12T03:57:46.723Z,0.50
2022-12-12T04:00:17.160Z,0.47
2022-12-12T04:02:52.663Z,0.19
2022-12-12T04:05:24.910Z,0.44
2022-12-12T04:07:59.916Z,-0.51
2022-12-12T04:10:51.833Z,0.45
2022-12-12T04:13:32.239Z,0.46
2022-12-12T04:16:05.143Z,0.01
2022-12-12T04:18:46.795Z,0.50
2022-12-12T04:21:44.842Z,0.51
2022-12-12T04:24:21.903Z,0.51
2022-12-12T04:26:55.603Z,0.37
2022-12-12T04:29:29.956Z,0.27
2022-12-12T04:32:03.408Z,0.47
2022-12-12T04:34:42.000Z,0.49
2022-12-12T04:37:15.634Z,0.50
2022-12-12T04:39:47.681Z,0.49
2022-12-12T04:42:21.424Z,0.15
2022-12-12T04:44:53.515Z,0.31
2022-12-12T04:47:22.901Z,0.34
2022-12-12T04:49:53.937Z,0.52
2022-12-12T04:52:24.737Z,0.49
2022-12-12T04:54:59.753Z,0.25
2022-12-12T04:57:33.311Z,0.16
2022-12-12T05:00:01.773Z,0.44
2022-12-12T05:02:38.740Z,0.42
2022-12-12T05:05:11.345Z,0.08
2022-12-12T05:07:42.301Z,0.16
2022-12-12T05:10:15.457Z,-0.29
2022-12-12T05:12:45.399Z,0.40
2022-12-12T05:15:15.059Z,-0.23
2022-12-12T05:17:47.279Z,0.43
2022-12-12T05:20:16.423Z,0.41
2022-12-12T05:22:44.384Z,0.37
2022-12-12T05:25:14.369Z,0.37
2022-12-12T05:27:42.801Z,0.35
2022-12-12T05:30:12.123Z,0.32
2022-12-12T05:32:39.931Z,0.40
2022-12-12T05:35:09.392Z,0.40
2022-12-12T05:37:37.559Z,0.24
2022-12-12T05:40:07.978Z,0.37
2022-12-12T05:42:37.138Z,0.39
2022-12-12T05:45:06.197Z,0.35
2022-12-12T05:47:34.034Z,0.34
2022-12-12T05:50:02.503Z,0.35
2022-12-12T05:52:30.210Z,0.36
2022-12-12T05:54:58.012Z,-0.51
2022-12-12T05:57:27.073Z,0.38
2022-12-12T05:59:57.046Z,0.17
2022-12-12T06:02:25.336Z,0.40
2022-12-12T06:04:55.141Z,0.37
2022-12-12T06:07:22.853Z,0.36
2022-12-12T06:09:50.580Z,0.35
2022-12-12T06:12:18.396Z,0.34
2022-12-12T06:14:53.065Z,-0.37
2022-12-12T06:17:27.132Z,-0.41
2022-12-12T06:19:59.923Z,0.12
2022-12-12T06:22:28.659Z,0.28
2022-12-12T06:24:57.752Z,0.28
2022-12-12T06:27:25.453Z,0.28
2022-12-12T06:30:11.603Z,0.29
2022-12-12T06:32:42.732Z,0.30
2022-12-12T06:35:12.947Z,-2.43
2022-12-12T06:46:51.384Z,-2.93
2022-12-12T06:49:20.857Z,0.12
2022-12-12T06:51:51.628Z,-0.85
2022-12-12T06:54:20.599Z,-0.44
2022-12-12T06:56:48.940Z,0.18
2022-12-12T06:59:17.651Z,-1.02
2022-12-12T07:01:45.975Z,-1.70
2022-12-12T07:04:14.663Z,-2.23
2022-12-12T07:06:44.109Z,0.16
2022-12-12T07:09:11.969Z,0.21
2022-12-12T07:11:41.444Z,0.20
2022-12-12T07:14:09.358Z,0.23
2022-12-12T07:16:37.156Z,-0.20
2022-12-12T07:19:05.181Z,0.05
2022-12-12T07:21:32.873Z,0.13
2022-12-12T11:09:48.330Z,7.72
2022-12-12T11:12:18.340Z,6.98
2022-12-12T11:14:50.274Z,7.94
2022-12-12T12:35:14.487Z,6.67
2022-12-12T12:37:53.742Z,6.67
2022-12-12T12:40:34.491Z,6.80
2022-12-12T12:43:18.050Z,6.59
2022-12-12T12:45:50.259Z,6.79
2022-12-12T12:48:22.547Z,6.90
2022-12-12T12:50:56.600Z,6.77
2022-12-12T12:53:33.602Z,6.82
2022-12-12T12:56:09.871Z,7.14
2022-12-12T12:58:45.498Z,7.37
2022-12-12T13:01:17.359Z,7.16
2022-12-12T13:03:51.127Z,6.60
2022-12-12T13:06:24.413Z,6.06
2022-12-12T13:08:58.903Z,5.09
2022-12-12T13:11:33.113Z,5.57
2022-12-12T13:14:14.386Z,5.19
2022-12-12T13:16:44.229Z,3.83
2022-12-12T13:19:16.346Z,3.12
2022-12-12T13:21:51.283Z,3.88
2022-12-12T13:24:27.402Z,3.36
2022-12-12T13:27:02.698Z,2.70
2022-12-12T13:29:41.065Z,2.16
2022-12-12T13:32:34.197Z,3.28
2022-12-12T13:35:07.828Z,3.07
2022-12-12T13:37:44.019Z,2.84
2022-12-12T13:40:24.190Z,3.00
2022-12-12T13:42:54.790Z,2.99
2022-12-12T13:45:45.604Z,2.60
2022-12-12T13:48:41.423Z,2.63
2022-12-12T13:57:34.554Z,2.16
2022-12-12T14:00:23.466Z,1.22
2022-12-12T14:09:05.136Z,1.65
2022-12-12T14:11:37.220Z,1.88
2022-12-12T14:14:23.120Z,1.83
2022-12-12T14:16:56.444Z,1.76
2022-12-12T14:19:36.451Z,1.73
2022-12-12T14:22:05.194Z,1.68
2022-12-12T14:24:56.683Z,1.58
2022-12-12T14:28:03.338Z,1.40
2022-12-12T14:30:44.701Z,1.51
2022-12-12T14:33:35.525Z,1.42
2022-12-12T14:36:10.976Z,0.78
2022-12-12T14:38:45.308Z,1.11
2022-12-12T14:41:17.853Z,1.12
2022-12-12T14:44:35.626Z,1.05
2022-12-12T14:46:42.281Z,1.00
2022-12-12T14:49:15.330Z,0.95
2022-12-12T14:51:44.972Z,0.88
2022-12-12T14:54:17.615Z,0.68
2022-12-12T14:56:52.980Z,0.74
2022-12-12T14:59:24.378Z,0.53
2022-12-12T15:01:54.621Z,0.58
2022-12-12T15:04:25.488Z,0.51
2022-12-12T15:06:54.021Z,0.43
2022-12-12T15:09:29.189Z,0.35
2022-12-12T15:12:13.740Z,0.27
2022-12-12T15:14:52.955Z,0.18
2022-12-12T15:17:23.684Z,0.05
2022-12-12T15:19:54.338Z,-0.04
2022-12-12T15:22:25.041Z,-0.12
2022-12-12T15:24:53.689Z,-0.84
2022-12-12T15:27:26.206Z,-0.27
2022-12-12T15:29:54.608Z,-0.50
2022-12-12T15:32:24.702Z,-0.45
2022-12-12T15:35:02.479Z,-0.46
2022-12-12T15:37:32.869Z,-0.74
2022-12-12T15:40:17.511Z,-0.62
2022-12-12T15:42:51.449Z,-0.71
2022-12-12T15:45:24.885Z,-0.92
2022-12-12T15:47:54.328Z,-0.91
2022-12-12T15:50:24.253Z,-0.91
2022-12-12T15:53:05.472Z,-0.96
2022-12-12T15:55:33.974Z,-1.02
2022-12-12T15:58:03.091Z,-1.09
2022-12-12T16:00:37.841Z,-1.35
2022-12-12T16:03:20.728Z,-1.35
2022-12-12T16:06:04.211Z,-1.31
2022-12-12T16:09:01.842Z,-1.38
2022-12-12T16:11:37.181Z,-1.58
2022-12-12T16:14:07.147Z,-1.81
2022-12-12T16:16:45.098Z,-1.72
2022-12-12T16:19:35.050Z,-1.65
2022-12-12T16:22:05.986Z,-1.88
2022-12-12T16:24:33.838Z,-1.86
2022-12-12T16:27:02.184Z,-1.78
2022-12-12T16:29:31.417Z,-1.82
2022-12-12T16:31:59.296Z,-2.02
2022-12-12T16:34:27.011Z,-1.92
2022-12-12T16:36:54.737Z,-1.96
2022-12-12T16:39:22.991Z,-2.00
2022-12-12T16:41:50.744Z,-2.05
2022-12-12T16:44:18.505Z,-2.07
2022-12-12T16:46:47.795Z,-2.11
2022-12-12T16:49:15.849Z,-2.17
2022-12-12T16:51:43.663Z,-2.21
2022-12-12T16:54:16.353Z,-2.23
2022-12-12T16:56:44.251Z,-2.42
2022-12-12T16:59:11.946Z,-2.94
2022-12-12T17:01:41.054Z,-2.38
2022-12-12T17:04:19.334Z,-2.49
2022-12-12T17:06:47.079Z,-2.45
2022-12-12T17:09:14.823Z,-2.48
2022-12-12T17:11:42.611Z,-2.52
2022-12-12T17:14:22.555Z,-2.68
2022-12-12T17:16:50.849Z,-2.74
2022-12-12T17:19:22.952Z,-2.61
2022-12-12T17:21:50.814Z,-2.65
2022-12-12T17:24:18.556Z,-2.70
2022-12-12T17:26:46.286Z,-2.93
2022-12-12T17:29:14.127Z,-2.78
2022-12-12T17:31:42.184Z,-2.99
2022-12-12T17:34:11.051Z,-2.86
2022-12-12T17:36:40.144Z,-2.92
2022-12-12T17:39:07.831Z,-2.95
2022-12-12T17:41:35.687Z,-3.20
2022-12-12T17:44:03.471Z,-3.38
2022-12-12T17:46:31.204Z,-3.11
2022-12-12T17:49:01.762Z,-3.30
2022-12-12T17:51:29.756Z,-3.12
2022-12-12T17:54:00.064Z,-3.15
2022-12-12T17:56:28.406Z,-3.18
2022-12-12T17:58:56.210Z,-3.59
2022-12-12T18:01:26.118Z,-3.24
2022-12-12T18:03:54.826Z,-3.44
2022-12-12T18:06:23.796Z,-3.32
2022-12-12T18:08:54.433Z,-3.40
2022-12-12T18:11:27.496Z,-3.53
2022-12-12T18:13:57.682Z,-3.42
2022-12-12T18:16:29.279Z,-3.45
2022-12-12T18:18:57.857Z,-3.69
2022-12-12T18:24:19.232Z,-3.54
2022-12-12T18:26:52.678Z,-3.92
2022-12-12T18:29:21.472Z,-3.74
2022-12-12T18:31:49.381Z,-3.64
2022-12-12T18:34:17.460Z,-4.55
2022-12-12T18:36:45.194Z,-4.47
2022-12-12T18:39:12.921Z,-5.02
2022-12-12T18:41:40.733Z,-3.74
2022-12-12T18:44:13.266Z,-3.99
2022-12-12T18:46:43.360Z,-4.01
2022-12-12T18:49:14.876Z,-4.00
2022-12-12T18:51:43.172Z,-3.87
2022-12-12T18:54:15.412Z,-4.14
2022-12-12T18:56:44.681Z,-3.89
2022-12-12T18:59:14.656Z,-3.92
2022-12-12T19:01:42.669Z,-4.14
2022-12-12T19:04:13.417Z,-4.03
2022-12-12T19:06:43.462Z,-4.23
2022-12-12T19:09:15.084Z,-4.03
2022-12-12T19:11:43.850Z,-4.07
2022-12-12T19:14:15.045Z,-4.10
2022-12-12T19:16:43.109Z,-4.17
2022-12-12T19:19:12.060Z,-4.15
2022-12-12T19:21:42.002Z,-4.41
2022-12-12T19:24:14.470Z,-4.20
2022-12-12T19:26:44.511Z,-4.22
2022-12-12T19:29:16.699Z,-4.25
2022-12-12T19:31:45.615Z,-5.03
2022-12-12T19:34:17.325Z,-4.32
2022-12-12T19:36:45.755Z,-4.34
2022-12-12T19:39:14.222Z,-4.36
2022-12-12T19:41:42.405Z,-4.38
2022-12-12T19:44:14.740Z,-4.39
2022-12-12T19:46:45.491Z,-4.78
2022-12-12T19:49:15.623Z,-4.43
2022-12-12T19:51:44.857Z,-4.66
2022-12-12T19:54:15.400Z,-4.47
2022-12-12T19:56:43.453Z,-5.32
2022-12-12T19:59:14.853Z,-4.51
2022-12-12T20:01:43.676Z,-4.74
2022-12-12T20:04:16.749Z,-5.85
2022-12-12T20:06:46.254Z,-4.58
2022-12-12T20:09:15.458Z,-4.60
2022-12-12T20:11:45.162Z,-4.64
2022-12-12T20:14:15.357Z,-4.67
2022-12-12T20:16:43.384Z,-5.20
2022-12-12T20:19:11.932Z,-4.91
2022-12-12T20:24:33.176Z,-5.25
2022-12-12T20:27:03.484Z,-5.01
2022-12-12T20:29:33.580Z,-4.75
2022-12-12T20:32:12.540Z,-4.79
2022-12-12T20:34:45.506Z,-5.20
2022-12-12T20:37:18.277Z,-4.80
2022-12-12T20:39:47.900Z,-4.81
2022-12-12T20:42:15.610Z,-4.82
2022-12-12T20:44:44.729Z,-5.35
2022-12-12T20:47:18.150Z,-4.86
2022-12-12T20:49:48.102Z,-4.87
2022-12-12T20:52:15.837Z,-4.88
2022-12-12T20:54:43.649Z,-4.90
2022-12-12T20:57:11.565Z,-4.90
2022-12-12T20:59:39.303Z,-4.93
2022-12-12T21:02:08.462Z,-5.93
2022-12-12T21:04:36.513Z,-4.95
2022-12-12T21:07:04.333Z,-4.97
2022-12-12T21:09:32.083Z,-4.98
2022-12-12T21:12:00.091Z,-5.26
2022-12-12T21:14:30.636Z,-5.34
2022-12-12T21:16:58.417Z,-5.02
2022-12-12T21:19:27.651Z,-5.11
2022-12-12T21:21:55.561Z,-5.04
2022-12-12T21:24:23.720Z,-5.22
2022-12-12T21:26:51.706Z,-5.06
2022-12-12T21:29:19.457Z,-5.07
2022-12-12T21:31:51.467Z,-5.10
2022-12-12T21:34:21.216Z,-5.10
2022-12-12T21:36:52.800Z,-5.11
2022-12-12T21:39:21.865Z,-5.28
2022-12-12T21:41:51.054Z,-5.14
2022-12-12T21:44:18.832Z,-5.17
2022-12-12T21:46:46.613Z,-5.18
2022-12-12T21:49:34.114Z,-5.33
2022-12-12T21:52:05.416Z,-5.22
2022-12-12T21:54:33.777Z,-5.58
2022-12-12T21:57:01.827Z,-5.92
2022-12-12T21:59:31.026Z,-5.27
2022-12-12T22:02:00.745Z,-5.30
2022-12-12T22:04:29.094Z,-5.31
2022-12-12T22:06:57.933Z,-5.33
2022-12-12T22:09:28.083Z,-5.53
2022-12-12T22:12:03.986Z,-5.36
2022-12-12T22:14:33.746Z,-5.37
2022-12-12T22:17:01.785Z,-6.36
2022-12-12T22:19:29.898Z,-5.38
2022-12-12T22:21:57.669Z,-5.45
2022-12-12T22:24:27.230Z,-5.41
2022-12-12T22:26:55.003Z,-5.49
2022-12-12T22:29:22.786Z,-5.80
2022-12-12T22:31:52.086Z,-5.47
2022-12-12T22:34:22.477Z,-5.75
2022-12-12T22:36:50.406Z,-5.49
2022-12-12T22:39:20.898Z,-5.48
2022-12-12T22:41:51.001Z,-6.36
2022-12-12T22:44:20.519Z,-5.82
2022-12-12T22:46:52.460Z,-5.52
2022-12-12T22:49:22.437Z,-5.53
2022-12-12T22:51:50.656Z,-5.53
2022-12-12T22:54:19.226Z,-5.89
2022-12-12T22:56:47.233Z,-5.63
2022-12-12T22:59:16.493Z,-5.56
2022-12-12T23:01:44.596Z,-5.57
2022-12-12T23:04:14.034Z,-5.58
2022-12-12T23:06:42.804Z,-5.83
2022-12-12T23:09:15.207Z,-5.59
2022-12-12T23:11:43.830Z,-5.59
2022-12-12T23:14:14.704Z,-5.61
2022-12-12T23:16:44.441Z,-5.62
2022-12-12T23:19:15.141Z,-5.62
2022-12-12T23:21:43.308Z,-5.65
2022-12-12T23:24:11.438Z,-5.91
2022-12-12T23:26:39.358Z,-5.68
2022-12-12T23:29:09.212Z,-5.69
2022-12-12T23:31:39.442Z,-5.70
2022-12-12T23:34:10.932Z,-5.90
2022-12-12T23:36:38.877Z,-5.74
2022-12-12T23:39:08.785Z,-5.76
2022-12-12T23:41:37.020Z,-5.78
2022-12-12T23:44:05.373Z,-5.80
2022-12-12T23:46:33.669Z,-5.83
2022-12-12T23:49:05.637Z,-5.85
2022-12-12T23:51:36.506Z,-5.86
2022-12-12T23:54:06.417Z,-5.90
2022-12-12T23:56:34.455Z,-6.15
2022-12-12T23:59:02.215Z,-5.92
